createdAt,value
2018-07-07T00:00:24.406Z,4.80
2018-07-07T00:03:04.305Z,4.60
2018-07-07T00:05:35.605Z,4.57
2018-07-07T00:08:06.141Z,4.43
2018-07-07T00:10:36.661Z,4.20
2018-07-07T00:13:08.273Z,4.87
2018-07-07T00:15:38.842Z,4.40
2018-07-07T00:18:09.696Z,4.63
2018-07-07T00:20:41.454Z,4.20
2018-07-07T00:23:19.215Z,4.43
2018-07-07T00:25:50.599Z,4.53
2018-07-07T00:28:21.127Z,4.30
2018-07-07T00:30:51.929Z,4.60
2018-07-07T00:33:31.766Z,4.23
2018-07-07T00:36:03.199Z,4.27
2018-07-07T00:38:35.714Z,4.10
2018-07-07T00:41:07.082Z,4.00
2018-07-07T00:43:40.784Z,4.40
2018-07-07T00:46:10.427Z,4.47
2018-07-07T00:48:40.280Z,4.50
2018-07-07T00:51:11.862Z,4.07
2018-07-07T00:53:54.175Z,4.37
2018-07-07T00:56:23.549Z,4.10
2018-07-07T00:58:53.179Z,4.07
2018-07-07T01:01:23.635Z,4.33
2018-07-07T01:04:02.829Z,4.23
2018-07-07T01:06:35.437Z,4.40
2018-07-07T01:09:07.022Z,4.33
2018-07-07T01:11:37.838Z,3.80
2018-07-07T01:14:21.443Z,3.77
2018-07-07T01:16:52.502Z,4.07
2018-07-07T01:19:22.198Z,3.97
2018-07-07T01:21:53.150Z,4.20
2018-07-07T01:24:30.817Z,3.57
2018-07-07T01:27:01.191Z,4.17
2018-07-07T01:29:31.233Z,3.97
2018-07-07T01:32:00.522Z,4.07
2018-07-07T01:34:38.203Z,4.70
2018-07-07T01:37:08.559Z,4.40
2018-07-07T01:39:39.234Z,3.57
2018-07-07T01:42:10.634Z,3.77
2018-07-07T01:44:48.121Z,4.07
2018-07-07T01:47:17.397Z,3.97
2018-07-07T01:49:48.957Z,3.83
2018-07-07T01:52:18.806Z,4.00
2018-07-07T01:54:55.607Z,3.50
2018-07-07T01:57:25.582Z,4.27
2018-07-07T01:59:56.953Z,3.93
2018-07-07T02:02:27.882Z,4.13
2018-07-07T02:05:04.493Z,4.30
2018-07-07T02:07:34.354Z,3.63
2018-07-07T02:10:05.838Z,4.03
2018-07-07T02:12:36.458Z,3.33
2018-07-07T02:15:13.174Z,3.50
2018-07-07T02:17:45.028Z,4.10
2018-07-07T02:20:15.998Z,3.30
2018-07-07T02:22:45.902Z,3.53
2018-07-07T02:25:17.102Z,4.10
2018-07-07T02:27:48.435Z,4.00
2018-07-07T02:30:20.511Z,3.60
2018-07-07T02:32:50.738Z,4.03
2018-07-07T02:35:28.278Z,3.73
2018-07-07T02:37:59.886Z,4.20
2018-07-07T02:40:30.035Z,3.60
2018-07-07T02:43:00.562Z,4.50
2018-07-07T02:45:32.703Z,4.20
2018-07-07T02:48:02.417Z,3.80
2018-07-07T02:50:32.718Z,3.90
2018-07-07T02:53:02.906Z,3.90
2018-07-07T02:55:36.675Z,3.70
2018-07-07T02:58:06.297Z,3.77
2018-07-07T03:00:36.447Z,3.57
2018-07-07T03:03:07.604Z,3.83
2018-07-07T03:05:38.510Z,3.90
2018-07-07T03:08:09.225Z,3.87
2018-07-07T03:10:39.191Z,3.93
2018-07-07T03:13:10.341Z,3.87
2018-07-07T03:15:53.642Z,3.87
2018-07-07T03:18:24.593Z,4.13
2018-07-07T03:20:55.277Z,4.10
2018-07-07T03:23:26.716Z,4.10
2018-07-07T03:26:04.818Z,3.80
2018-07-07T03:28:36.229Z,3.67
2018-07-07T03:31:07.359Z,3.60
2018-07-07T03:33:38.087Z,4.27
2018-07-07T03:36:09.113Z,3.70
2018-07-07T03:38:40.334Z,4.03
2018-07-07T03:41:11.075Z,4.00
2018-07-07T03:43:46.285Z,4.00
2018-07-07T03:46:17.840Z,4.03
2018-07-07T03:48:47.634Z,4.23
2018-07-07T03:51:17.669Z,4.00
2018-07-07T03:53:48.307Z,4.30
2018-07-07T03:56:32.586Z,4.00
2018-07-07T03:59:03.746Z,3.70
2018-07-07T04:01:34.743Z,4.00
2018-07-07T04:04:05.146Z,3.70
2018-07-07T04:06:48.620Z,4.03
2018-07-07T04:09:20.199Z,4.47
2018-07-07T04:11:50.990Z,4.00
2018-07-07T04:14:21.635Z,4.17
2018-07-07T04:16:58.338Z,3.87
2018-07-07T04:19:27.719Z,3.83
2018-07-07T04:21:57.838Z,3.70
2018-07-07T04:24:28.934Z,4.20
2018-07-07T04:27:00.745Z,4.23
2018-07-07T04:29:31.254Z,3.97
2018-07-07T04:32:00.834Z,3.73
2018-07-07T04:34:32.611Z,3.80
2018-07-07T04:37:06.315Z,4.23
2018-07-07T04:39:36.969Z,4.60
2018-07-07T04:42:07.001Z,3.90
2018-07-07T04:44:38.146Z,4.27
2018-07-07T04:47:15.751Z,4.10
2018-07-07T04:49:45.581Z,4.20
2018-07-07T04:52:16.912Z,4.67
2018-07-07T04:54:48.004Z,4.50
2018-07-07T04:57:18.370Z,4.47
2018-07-07T04:59:50.038Z,4.33
2018-07-07T05:02:22.591Z,4.13
2018-07-07T05:04:54.954Z,3.90
2018-07-07T05:07:28.873Z,4.20
2018-07-07T05:10:00.343Z,3.80
2018-07-07T05:12:31.582Z,3.60
2018-07-07T05:15:02.028Z,4.23
2018-07-07T05:17:34.165Z,3.70
2018-07-07T05:20:04.695Z,4.27
2018-07-07T05:22:34.454Z,3.97
2018-07-07T05:25:05.116Z,4.20
2018-07-07T05:27:42.899Z,4.03
2018-07-07T05:30:13.475Z,4.27
2018-07-07T05:32:43.298Z,4.10
2018-07-07T05:35:13.414Z,4.30
2018-07-07T05:37:44.827Z,4.47
2018-07-07T05:40:16.187Z,4.10
2018-07-07T05:42:47.120Z,3.70
2018-07-07T05:45:17.982Z,4.10
2018-07-07T05:47:50.241Z,3.80
2018-07-07T05:50:20.894Z,4.20
2018-07-07T05:52:50.483Z,4.27
2018-07-07T05:55:21.603Z,3.97
2018-07-07T05:57:56.569Z,3.87
2018-07-07T06:00:27.310Z,4.10
2018-07-07T06:02:57.830Z,4.13
2018-07-07T06:05:29.109Z,4.53
2018-07-07T06:08:00.618Z,4.17
2018-07-07T06:10:33.785Z,4.20
2018-07-07T06:13:03.488Z,4.90
2018-07-07T06:15:34.365Z,5.40
2018-07-07T06:18:05.702Z,6.27
2018-07-07T06:20:37.044Z,6.00
2018-07-07T06:23:07.206Z,5.53
2018-07-07T06:25:39.791Z,5.87
2018-07-07T06:28:12.347Z,6.00
2018-07-07T06:30:43.148Z,6.33
2018-07-07T06:33:12.525Z,5.67
2018-07-07T06:35:42.659Z,5.90
2018-07-07T06:38:14.871Z,5.67
2018-07-07T06:40:45.102Z,5.70
2018-07-07T06:43:15.129Z,6.20
2018-07-07T06:45:46.047Z,6.30
2018-07-07T06:48:17.578Z,6.33
2018-07-07T06:50:47.519Z,5.77
2018-07-07T06:53:17.062Z,5.93
2018-07-07T06:55:50.155Z,5.67
2018-07-07T06:58:29.540Z,5.43
2018-07-07T07:00:58.836Z,5.53
2018-07-07T07:03:29.274Z,5.43
2018-07-07T07:05:58.963Z,5.83
2018-07-07T07:08:31.903Z,5.53
2018-07-07T07:11:02.199Z,6.03
2018-07-07T07:13:31.996Z,5.67
2018-07-07T07:16:01.771Z,5.30
2018-07-07T07:18:33.690Z,5.60
2018-07-07T07:21:03.314Z,5.90
2018-07-07T07:23:34.198Z,6.10
2018-07-07T07:26:04.096Z,5.93
2018-07-07T07:28:35.392Z,6.50
2018-07-07T07:31:04.665Z,6.40
2018-07-07T07:33:34.865Z,5.77
2018-07-07T07:36:08.359Z,5.80
2018-07-07T07:38:44.959Z,6.00
2018-07-07T07:41:14.929Z,5.27
2018-07-07T07:43:45.671Z,6.37
2018-07-07T07:46:15.635Z,5.60
2018-07-07T07:48:45.391Z,5.13
2018-07-07T07:51:14.994Z,5.90
2018-07-07T07:53:46.775Z,5.97
2018-07-07T07:56:18.291Z,5.50
2018-07-07T07:58:47.779Z,4.90
2018-07-07T08:01:18.099Z,5.53
2018-07-07T08:03:47.686Z,5.53
2018-07-07T08:06:17.656Z,5.20
2018-07-07T08:08:47.631Z,5.40
2018-07-07T08:11:18.781Z,5.00
2018-07-07T08:13:48.145Z,4.70
2018-07-07T08:16:18.665Z,5.07
2018-07-07T08:18:48.257Z,4.67
2018-07-07T08:21:19.262Z,4.47
2018-07-07T08:23:49.179Z,4.40
2018-07-07T08:26:18.709Z,4.90
2018-07-07T08:28:48.010Z,4.80
2018-07-07T08:31:17.626Z,4.70
2018-07-07T08:33:47.959Z,4.60
2018-07-07T08:36:17.693Z,4.63
2018-07-07T08:38:47.382Z,4.77
2018-07-07T08:41:17.129Z,4.53
2018-07-07T08:43:47.223Z,4.97
2018-07-07T08:46:16.890Z,4.90
2018-07-07T08:48:46.154Z,4.37
2018-07-07T08:51:16.221Z,4.40
2018-07-07T08:53:46.782Z,4.80
2018-07-07T08:56:17.770Z,4.70
2018-07-07T08:58:48.734Z,4.73
2018-07-07T09:01:18.250Z,4.97
2018-07-07T09:03:48.633Z,4.17
2018-07-07T09:06:18.834Z,4.83
2018-07-07T09:08:48.932Z,4.43
2018-07-07T09:11:19.537Z,4.77
2018-07-07T09:13:50.107Z,4.77
2018-07-07T09:16:20.395Z,5.40
2018-07-07T09:18:50.397Z,4.80
2018-07-07T09:21:20.902Z,4.70
2018-07-07T09:23:51.031Z,4.37
2018-07-07T09:26:21.118Z,5.10
2018-07-07T09:28:51.152Z,4.50
2018-07-07T09:31:20.769Z,4.47
2018-07-07T09:33:50.710Z,4.70
2018-07-07T09:36:20.846Z,3.90
2018-07-07T09:38:50.511Z,5.03
2018-07-07T09:41:20.219Z,4.77
2018-07-07T09:43:50.422Z,4.73
2018-07-07T09:46:19.937Z,4.67
2018-07-07T09:48:49.525Z,4.70
2018-07-07T09:51:19.838Z,4.70
2018-07-07T09:53:50.483Z,4.47
2018-07-07T09:56:20.337Z,4.70
2018-07-07T09:58:49.976Z,4.90
2018-07-07T10:01:22.373Z,4.60
2018-07-07T10:03:51.693Z,4.90
2018-07-07T10:06:22.397Z,4.60
2018-07-07T10:08:52.690Z,4.50
2018-07-07T10:11:23.406Z,4.30
2018-07-07T10:13:52.686Z,4.43
2018-07-07T10:16:22.370Z,4.43
2018-07-07T10:18:53.647Z,4.80
2018-07-07T10:21:23.834Z,4.77
2018-07-07T10:23:53.962Z,4.33
2018-07-07T10:26:23.644Z,4.47
2018-07-07T10:28:53.038Z,4.80
2018-07-07T10:31:22.636Z,5.20
2018-07-07T10:33:52.249Z,4.30
2018-07-07T10:36:22.374Z,4.53
2018-07-07T10:38:52.385Z,4.50
2018-07-07T10:41:22.199Z,4.30
2018-07-07T10:43:52.424Z,4.13
2018-07-07T10:46:21.682Z,5.37
2018-07-07T10:48:54.039Z,6.37
2018-07-07T10:51:23.919Z,6.07
2018-07-07T10:53:55.307Z,6.80
2018-07-07T10:56:25.058Z,6.00
2018-07-07T10:59:08.110Z,6.13
2018-07-07T11:01:39.766Z,7.10
2018-07-07T11:04:09.417Z,6.77
2018-07-07T11:06:38.675Z,6.43
2018-07-07T11:09:10.410Z,6.97
2018-07-07T11:11:40.279Z,6.83
2018-07-07T11:14:12.001Z,7.27
2018-07-07T11:16:42.027Z,7.80
2018-07-07T11:19:12.147Z,7.07
2018-07-07T11:21:43.286Z,6.40
2018-07-07T11:24:14.698Z,7.13
2018-07-07T11:26:47.410Z,6.70
2018-07-07T11:29:20.691Z,6.97
2018-07-07T11:31:50.478Z,6.67
2018-07-07T11:34:20.613Z,6.87
2018-07-07T11:36:53.125Z,6.20
2018-07-07T11:39:24.458Z,6.33
2018-07-07T11:41:55.455Z,6.37
2018-07-07T11:44:25.578Z,6.37
2018-07-07T11:46:55.376Z,6.37
2018-07-07T11:49:25.109Z,6.90
2018-07-07T11:51:55.141Z,6.27
2018-07-07T11:54:25.996Z,6.97
2018-07-07T11:56:55.934Z,6.73
2018-07-07T11:59:26.014Z,5.97
2018-07-07T12:01:55.765Z,7.03
2018-07-07T12:04:26.645Z,6.93
2018-07-07T12:06:56.761Z,6.87
2018-07-07T12:09:26.040Z,7.20
2018-07-07T12:11:55.678Z,7.17
2018-07-07T12:14:25.814Z,5.97
2018-07-07T12:16:56.750Z,6.47
2018-07-07T12:19:27.349Z,7.20
2018-07-07T12:21:59.027Z,7.30
2018-07-07T12:24:29.357Z,6.80
2018-07-07T12:27:00.146Z,6.57
2018-07-07T12:29:30.289Z,6.93
2018-07-07T12:31:59.797Z,5.80
2018-07-07T12:34:30.675Z,7.00
2018-07-07T12:37:00.251Z,6.80
2018-07-07T12:39:30.222Z,6.53
2018-07-07T12:42:00.094Z,6.70
2018-07-07T12:44:29.817Z,7.13
2018-07-07T12:46:59.990Z,7.03
2018-07-07T12:49:29.029Z,7.07
2018-07-07T12:51:58.894Z,6.60
2018-07-07T12:54:29.706Z,6.20
2018-07-07T12:56:59.512Z,6.40
2018-07-07T12:59:29.250Z,6.93
2018-07-07T13:01:59.238Z,6.80
2018-07-07T13:04:29.810Z,6.20
2018-07-07T13:07:00.476Z,7.20
2018-07-07T13:09:29.974Z,6.63
2018-07-07T13:12:00.512Z,6.97
2018-07-07T13:14:31.290Z,6.87
2018-07-07T13:17:00.874Z,6.63
2018-07-07T13:19:30.504Z,6.47
2018-07-07T13:22:00.475Z,6.53
2018-07-07T13:24:30.746Z,6.30
2018-07-07T13:27:00.536Z,5.97
2018-07-07T13:29:29.849Z,6.30
2018-07-07T13:32:00.310Z,6.30
2018-07-07T13:34:29.886Z,6.57
2018-07-07T13:37:00.970Z,6.53
2018-07-07T13:39:31.182Z,6.37
2018-07-07T13:42:00.719Z,6.37
2018-07-07T13:44:31.807Z,6.60
2018-07-07T13:47:01.876Z,6.10
2018-07-07T13:49:31.156Z,6.40
2018-07-07T13:52:03.900Z,6.27
2018-07-07T13:54:33.663Z,5.67
2018-07-07T13:57:03.694Z,6.53
2018-07-07T13:59:33.538Z,5.70
2018-07-07T14:02:03.666Z,6.43
2018-07-07T14:04:33.855Z,6.30
2018-07-07T14:07:04.837Z,6.03
2018-07-07T14:09:34.681Z,6.10
2018-07-07T14:12:05.543Z,6.43
2018-07-07T14:14:36.730Z,6.33
2018-07-07T14:17:07.033Z,5.87
2018-07-07T14:19:37.173Z,6.80
2018-07-07T14:22:08.006Z,6.30
2018-07-07T14:24:37.546Z,5.77
2018-07-07T14:27:07.058Z,5.43
2018-07-07T14:29:37.625Z,5.93
2018-07-07T14:32:07.994Z,5.63
2018-07-07T14:34:41.574Z,6.60
2018-07-07T14:37:12.072Z,6.83
2018-07-07T14:40:00.430Z,6.33
2018-07-07T14:42:46.838Z,5.90
2018-07-07T14:45:22.625Z,5.93
2018-07-07T14:47:53.786Z,6.63
2018-07-07T14:50:23.638Z,6.70
2018-07-07T14:52:53.003Z,6.27
2018-07-07T14:55:26.140Z,6.30
2018-07-07T14:57:55.470Z,6.30
2018-07-07T15:00:27.358Z,6.13
2018-07-07T15:02:58.749Z,5.97
2018-07-07T15:05:28.354Z,7.07
2018-07-07T15:07:58.678Z,5.63
2018-07-07T15:10:29.505Z,6.00
2018-07-07T15:12:59.234Z,6.30
2018-07-07T15:15:28.536Z,6.20
2018-07-07T15:17:59.565Z,7.50
2018-07-07T15:20:29.122Z,6.80
2018-07-07T15:22:59.993Z,6.27
2018-07-07T15:25:30.407Z,6.67
2018-07-07T15:28:00.571Z,6.73
2018-07-07T15:30:30.527Z,6.43
2018-07-07T15:33:01.283Z,6.33
2018-07-07T15:35:32.610Z,6.53
2018-07-07T15:38:02.907Z,7.00
2018-07-07T15:40:34.257Z,6.87
2018-07-07T15:43:04.007Z,7.17
2018-07-07T15:45:33.274Z,6.53
2018-07-07T15:48:02.888Z,6.17
2018-07-07T15:50:32.939Z,6.43
2018-07-07T15:53:03.391Z,6.40
2018-07-07T15:55:34.221Z,6.73
2018-07-07T15:58:05.319Z,7.40
2018-07-07T16:00:35.896Z,6.83
2018-07-07T16:03:05.835Z,6.83
2018-07-07T16:05:35.807Z,6.90
2018-07-07T16:08:05.458Z,6.57
2018-07-07T16:10:35.982Z,6.43
2018-07-07T16:13:06.162Z,6.63
2018-07-07T16:15:35.089Z,6.60
2018-07-07T16:18:05.182Z,6.63
2018-07-07T16:20:34.467Z,7.40
2018-07-07T16:23:05.319Z,7.00
2018-07-07T16:25:35.361Z,7.63
2018-07-07T16:28:04.956Z,7.57
2018-07-07T20:59:52.686Z,6.60
2018-07-07T21:21:14.891Z,5.07
